Terminal Aerodrome Forecast
Issued by NWS Cleveland, OH

Home | Current Version | Previous Version | Text Only | Print | Product List | Glossary On
Versions: 1 2 3 4 5 6 7 8 9 10 11 12 13 14 15 16 17 18 19 20 21 22 23 24 25 26 27 28 29
000
FTUS41 KCLE 181700
TAFCAK
TAF
KCAK 181738Z 1818/1918 28008KT 6SM -SN OVC018
      TEMPO 1819/1823 4SM -SN OVC012
     FM182300 28005KT 5SM -SN OVC015
      TEMPO 1823/1903 2SM -SN OVC015
     FM190600 30005KT P6SM OVC015
     FM191300 32005KT P6SM OVC012=

USA.gov is the U.S. government's official web portal to all federal, state and local government web resources and services.